sensor_id;sensor_type;location;lat;lon;timestamp;pressure;altitude;pressure_sealevel;temperature;humidity
13867;BME280;7003;46.982;15.248;2022-07-25T00:02:23;97413.94;;;19.97;100.00
13867;BME280;7003;46.982;15.248;2022-07-25T00:04:56;97410.50;;;20.04;100.00
13867;BME280;7003;46.982;15.248;2022-07-25T00:07:23;97406.25;;;20.10;100.00
13867;BME280;7003;46.982;15.248;2022-07-25T00:10:05;97401.63;;;20.03;100.00
13867;BME280;7003;46.982;15.248;2022-07-25T00:12:33;97401.59;;;19.99;100.00
13867;BME280;7003;46.982;15.248;2022-07-25T00:15:05;97403.84;;;19.87;100.00
13867;BME280;7003;46.982;15.248;2022-07-25T00:17:39;97397.66;;;19.83;100.00
13867;BME280;7003;46.982;15.248;2022-07-25T00:20:07;97396.78;;;19.61;100.00
13867;BME280;7003;46.982;15.248;2022-07-25T00:22:39;97397.13;;;19.52;100.00
13867;BME280;7003;46.982;15.248;2022-07-25T00:25:06;97393.28;;;19.50;100.00
13867;BME280;7003;46.982;15.248;2022-07-25T00:27:36;97388.63;;;19.47;100.00
13867;BME280;7003;46.982;15.248;2022-07-25T00:30:06;97395.13;;;19.42;100.00
13867;BME280;7003;46.982;15.248;2022-07-25T00:32:38;97395.13;;;19.46;100.00
13867;BME280;7003;46.982;15.248;2022-07-25T00:35:07;97396.69;;;19.43;100.00
13867;BME280;7003;46.982;15.248;2022-07-25T00:37:37;97390.47;;;19.39;100.00
13867;BME280;7003;46.982;15.248;2022-07-25T00:40:05;97386.63;;;19.40;100.00
13867;BME280;7003;46.982;15.248;2022-07-25T00:42:36;97385.06;;;19.39;100.00
13867;BME280;7003;46.982;15.248;2022-07-25T00:45:11;97377.69;;;19.29;100.00
13867;BME280;7003;46.982;15.248;2022-07-25T00:47:43;97377.31;;;19.27;100.00
13867;BME280;7003;46.982;15.248;2022-07-25T00:50:11;97376.53;;;19.30;100.00
13867;BME280;7003;46.982;15.248;2022-07-25T00:52:39;97373.88;;;19.34;100.00
13867;BME280;7003;46.982;15.248;2022-07-25T00:55:08;97382.56;;;19.09;100.00
13867;BME280;7003;46.982;15.248;2022-07-25T00:57:39;97372.47;;;18.96;100.00
13867;BME280;7003;46.982;15.248;2022-07-25T01:00:12;97369.69;;;18.85;100.00
13867;BME280;7003;46.982;15.248;2022-07-25T01:02:45;97367.72;;;18.82;100.00
13867;BME280;7003;46.982;15.248;2022-07-25T01:05:17;97375.44;;;18.83;100.00
13867;BME280;7003;46.982;15.248;2022-07-25T01:07:46;97366.94;;;18.81;100.00
13867;BME280;7003;46.982;15.248;2022-07-25T01:10:13;97370.91;;;18.95;100.00
13867;BME280;7003;46.982;15.248;2022-07-25T01:12:46;97375.47;;;18.87;100.00
13867;BME280;7003;46.982;15.248;2022-07-25T01:15:15;97368.53;;;18.90;100.00
13867;BME280;7003;46.982;15.248;2022-07-25T01:17:45;97368.53;;;18.90;100.00
13867;BME280;7003;46.982;15.248;2022-07-25T01:20:15;97367.28;;;18.76;100.00
13867;BME280;7003;46.982;15.248;2022-07-25T01:22:43;97359.16;;;18.69;100.00
13867;BME280;7003;46.982;15.248;2022-07-25T01:25:12;97362.66;;;18.73;100.00
13867;BME280;7003;46.982;15.248;2022-07-25T01:27:45;97348.38;;;18.69;100.00
13867;BME280;7003;46.982;15.248;2022-07-25T01:30:15;97351.88;;;18.73;100.00
13867;BME280;7003;46.982;15.248;2022-07-25T01:32:45;97348.38;;;18.69;100.00
13867;BME280;7003;46.982;15.248;2022-07-25T01:35:15;97347.59;;;18.69;100.00
13867;BME280;7003;46.982;15.248;2022-07-25T01:37:46;97343.28;;;18.57;100.00
13867;BME280;7003;46.982;15.248;2022-07-25T01:40:16;97340.88;;;18.52;100.00
13867;BME280;7003;46.982;15.248;2022-07-25T01:42:44;97342.00;;;18.48;100.00
13867;BME280;7003;46.982;15.248;2022-07-25T01:45:12;97331.13;;;18.37;100.00
13867;BME280;7003;46.982;15.248;2022-07-25T01:47:40;97337.59;;;18.29;100.00
13867;BME280;7003;46.982;15.248;2022-07-25T01:50:08;97330.69;;;18.31;100.00
13867;BME280;7003;46.982;15.248;2022-07-25T01:52:52;97335.72;;;18.36;100.00
13867;BME280;7003;46.982;15.248;2022-07-25T01:55:20;97334.19;;;18.35;100.00
13867;BME280;7003;46.982;15.248;2022-07-25T01:57:49;97331.84;;;18.30;100.00
13867;BME280;7003;46.982;15.248;2022-07-25T02:00:20;97331.88;;;18.34;100.00
13867;BME280;7003;46.982;15.248;2022-07-25T02:02:49;97332.59;;;18.31;100.00
13867;BME280;7003;46.982;15.248;2022-07-25T02:05:40;97323.03;;;18.33;100.00
13867;BME280;7003;46.982;15.248;2022-07-25T02:08:16;97325.66;;;18.30;100.00
13867;BME280;7003;46.982;15.248;2022-07-25T02:10:46;97317.34;;;18.45;100.00
13867;BME280;7003;46.982;15.248;2022-07-25T02:13:13;97325.03;;;18.43;100.00
13867;BME280;7003;46.982;15.248;2022-07-25T02:15:43;97324.22;;;18.39;100.00
13867;BME280;7003;46.982;15.248;2022-07-25T02:18:10;97321.94;;;18.41;100.00
13867;BME280;7003;46.982;15.248;2022-07-25T02:20:40;97322.50;;;18.21;100.00
13867;BME280;7003;46.982;15.248;2022-07-25T02:23:07;97317.75;;;18.03;100.00
13867;BME280;7003;46.982;15.248;2022-07-25T02:25:37;97314.72;;;18.08;100.00
13867;BME280;7003;46.982;15.248;2022-07-25T02:28:05;97319.31;;;18.08;100.00
13867;BME280;7003;46.982;15.248;2022-07-25T02:30:35;97320.09;;;18.12;100.00
13867;BME280;7003;46.982;15.248;2022-07-25T02:33:06;97311.28;;;18.12;100.00
13867;BME280;7003;46.982;15.248;2022-07-25T02:35:36;97310.47;;;18.07;100.00
13867;BME280;7003;46.982;15.248;2022-07-25T02:38:06;97316.56;;;18.04;100.00
13867;BME280;7003;46.982;15.248;2022-07-25T02:40:38;97314.16;;;17.92;100.00
13867;BME280;7003;46.982;15.248;2022-07-25T02:43:05;97312.25;;;17.96;100.00
13867;BME280;7003;46.982;15.248;2022-07-25T02:45:35;97316.50;;;17.97;100.00
13867;BME280;7003;46.982;15.248;2022-07-25T02:48:05;97320.81;;;18.05;100.00
13867;BME280;7003;46.982;15.248;2022-07-25T02:50:34;97312.25;;;17.96;100.00
13867;BME280;7003;46.982;15.248;2022-07-25T02:53:04;97308.34;;;17.87;100.00
13867;BME280;7003;46.982;15.248;2022-07-25T02:55:31;97309.50;;;17.89;100.00
13867;BME280;7003;46.982;15.248;2022-07-25T02:58:02;97311.38;;;17.85;100.00
13867;BME280;7003;46.982;15.248;2022-07-25T03:00:33;97308.63;;;17.78;100.00
13867;BME280;7003;46.982;15.248;2022-07-25T03:03:03;97308.13;;;17.69;100.00
13867;BME280;7003;46.982;15.248;2022-07-25T03:05:33;97317.75;;;17.70;100.00
13867;BME280;7003;46.982;15.248;2022-07-25T03:08:01;97320.38;;;17.66;100.00
13867;BME280;7003;46.982;15.248;2022-07-25T03:10:29;97310.00;;;17.65;100.00
13867;BME280;7003;46.982;15.248;2022-07-25T03:12:59;97315.84;;;17.74;100.00
13867;BME280;7003;46.982;15.248;2022-07-25T03:15:29;97308.91;;;17.69;100.00
13867;BME280;7003;46.982;15.248;2022-07-25T03:17:56;97300.38;;;17.64;100.00
13867;BME280;7003;46.982;15.248;2022-07-25T03:20:25;97303.78;;;17.61;100.00
13867;BME280;7003;46.982;15.248;2022-07-25T03:22:57;97302.56;;;17.55;100.00
13867;BME280;7003;46.982;15.248;2022-07-25T03:25:27;97309.06;;;17.54;100.00
13867;BME280;7003;46.982;15.248;2022-07-25T03:27:55;97307.59;;;17.60;100.00
13867;BME280;7003;46.982;15.248;2022-07-25T03:30:23;97312.97;;;17.60;100.00
13867;BME280;7003;46.982;15.248;2022-07-25T03:32:53;97311.50;;;17.62;100.00
13867;BME280;7003;46.982;15.248;2022-07-25T03:35:21;97311.84;;;17.61;100.00
13867;BME280;7003;46.982;15.248;2022-07-25T03:37:53;97313.84;;;17.64;100.00
13867;BME280;7003;46.982;15.248;2022-07-25T03:40:21;97312.38;;;17.74;100.00
13867;BME280;7003;46.982;15.248;2022-07-25T03:42:52;97312.44;;;17.77;100.00
13867;BME280;7003;46.982;15.248;2022-07-25T03:45:20;97310.59;;;17.85;100.00
13867;BME280;7003;46.982;15.248;2022-07-25T03:47:53;97320.63;;;17.58;100.00
13867;BME280;7003;46.982;15.248;2022-07-25T03:50:24;97323.50;;;17.42;100.00
13867;BME280;7003;46.982;15.248;2022-07-25T03:52:54;97312.38;;;17.44;100.00
13867;BME280;7003;46.982;15.248;2022-07-25T03:55:23;97314.34;;;17.47;100.00
13867;BME280;7003;46.982;15.248;2022-07-25T03:57:53;97311.06;;;17.60;100.00
13867;BME280;7003;46.982;15.248;2022-07-25T04:00:21;97314.22;;;17.66;100.00
13867;BME280;7003;46.982;15.248;2022-07-25T04:02:49;97314.22;;;17.66;100.00
13867;BME280;7003;46.982;15.248;2022-07-25T04:05:24;97311.81;;;17.57;100.00
13867;BME280;7003;46.982;15.248;2022-07-25T04:07:55;97314.53;;;17.61;100.00
13867;BME280;7003;46.982;15.248;2022-07-25T04:10:26;97303.34;;;17.59;100.00
13867;BME280;7003;46.982;15.248;2022-07-25T04:12:54;97306.47;;;17.61;100.00
13867;BME280;7003;46.982;15.248;2022-07-25T04:15:22;97313.75;;;17.60;100.00
13867;BME280;7003;46.982;15.248;2022-07-25T04:17:51;97307.31;;;17.65;100.00
13867;BME280;7003;46.982;15.248;2022-07-25T04:20:21;97309.03;;;17.80;100.00
13867;BME280;7003;46.982;15.248;2022-07-25T04:22:51;97309.41;;;17.79;100.00
13867;BME280;7003;46.982;15.248;2022-07-25T04:25:19;97311.38;;;17.85;100.00
13867;BME280;7003;46.982;15.248;2022-07-25T04:27:47;97312.09;;;17.82;100.00
13867;BME280;7003;46.982;15.248;2022-07-25T04:30:18;97303.66;;;17.84;100.00
13867;BME280;7003;46.982;15.248;2022-07-25T04:32:49;97302.66;;;17.95;100.00
13867;BME280;7003;46.982;15.248;2022-07-25T04:35:17;97303.38;;;17.92;100.00
13867;BME280;7003;46.982;15.248;2022-07-25T04:37:45;97301.59;;;18.03;100.00
13867;BME280;7003;46.982;15.248;2022-07-25T04:40:15;97302.72;;;18.02;100.00
13867;BME280;7003;46.982;15.248;2022-07-25T04:42:43;97295.88;;;18.08;100.00
13867;BME280;7003;46.982;15.248;2022-07-25T04:45:14;97296.59;;;18.05;100.00
13867;BME280;7003;46.982;15.248;2022-07-25T04:47:46;97303.13;;;18.04;100.00
13867;BME280;7003;46.982;15.248;2022-07-25T04:50:14;97301.66;;;18.11;100.00
13867;BME280;7003;46.982;15.248;2022-07-25T04:52:42;97287.91;;;18.19;100.00
13867;BME280;7003;46.982;15.248;2022-07-25T04:55:15;97296.78;;;18.23;100.00
13867;BME280;7003;46.982;15.248;2022-07-25T04:57:46;97302.56;;;18.29;100.00
13867;BME280;7003;46.982;15.248;2022-07-25T05:00:17;97291.91;;;18.39;100.00
13867;BME280;7003;46.982;15.248;2022-07-25T05:02:47;97290.53;;;18.56;100.00
13867;BME280;7003;46.982;15.248;2022-07-25T05:05:19;97295.03;;;18.89;100.00
13867;BME280;7003;46.982;15.248;2022-07-25T05:07:47;97298.25;;;19.16;100.00
13867;BME280;7003;46.982;15.248;2022-07-25T05:10:17;97296.53;;;19.48;100.00
13867;BME280;7003;46.982;15.248;2022-07-25T05:12:46;97298.53;;;19.73;100.00
13867;BME280;7003;46.982;15.248;2022-07-25T05:15:18;97296.72;;;20.05;100.00
13867;BME280;7003;46.982;15.248;2022-07-25T05:17:46;97292.13;;;20.38;100.00
13867;BME280;7003;46.982;15.248;2022-07-25T05:20:14;97297.13;;;20.85;100.00
13867;BME280;7003;46.982;15.248;2022-07-25T05:22:44;97287.44;;;21.12;100.00
13867;BME280;7003;46.982;15.248;2022-07-25T05:25:16;97288.16;;;21.38;100.00
13867;BME280;7003;46.982;15.248;2022-07-25T05:27:48;97283.44;;;21.63;100.00
13867;BME280;7003;46.982;15.248;2022-07-25T05:30:23;97292.94;;;21.96;100.00
13867;BME280;7003;46.982;15.248;2022-07-25T05:32:59;97283.63;;;22.04;100.00
13867;BME280;7003;46.982;15.248;2022-07-25T05:35:36;97283.09;;;22.27;100.00
13867;BME280;7003;46.982;15.248;2022-07-25T05:38:14;97281.75;;;22.49;100.00
13867;BME280;7003;46.982;15.248;2022-07-25T05:40:51;97281.16;;;22.79;100.00
13867;BME280;7003;46.982;15.248;2022-07-25T05:43:24;97276.31;;;22.97;100.00
13867;BME280;7003;46.982;15.248;2022-07-25T05:46:00;97273.84;;;23.14;100.00
13867;BME280;7003;46.982;15.248;2022-07-25T05:48:33;97275.44;;;23.08;100.00
13867;BME280;7003;46.982;15.248;2022-07-25T05:51:04;97279.13;;;23.24;100.00
13867;BME280;7003;46.982;15.248;2022-07-25T05:53:32;97278.63;;;23.36;100.00
13867;BME280;7003;46.982;15.248;2022-07-25T05:56:02;97282.88;;;23.37;100.00
13867;BME280;7003;46.982;15.248;2022-07-25T05:58:30;97289.81;;;23.38;100.00
13867;BME280;7003;46.982;15.248;2022-07-25T06:01:00;97277.94;;;23.29;100.00
13867;BME280;7003;46.982;15.248;2022-07-25T06:03:28;97281.63;;;23.46;100.00
13867;BME280;7003;46.982;15.248;2022-07-25T06:05:58;97279.44;;;23.67;100.00
13867;BME280;7003;46.982;15.248;2022-07-25T06:08:26;97270.16;;;23.65;100.00
13867;BME280;7003;46.982;15.248;2022-07-25T06:10:56;97274.59;;;23.82;100.00
13867;BME280;7003;46.982;15.248;2022-07-25T06:13:28;97266.19;;;24.00;100.00
13867;BME280;7003;46.982;15.248;2022-07-25T06:15:56;97268.03;;;24.06;100.00
13867;BME280;7003;46.982;15.248;2022-07-25T06:18:26;97263.72;;;24.09;100.00
13867;BME280;7003;46.982;15.248;2022-07-25T06:20:55;97269.22;;;24.32;100.00
13867;BME280;7003;46.982;15.248;2022-07-25T06:23:23;97254.41;;;24.37;100.00
13867;BME280;7003;46.982;15.248;2022-07-25T06:25:51;97259.13;;;24.56;100.00
13867;BME280;7003;46.982;15.248;2022-07-25T06:28:21;97255.72;;;24.52;100.00
13867;BME280;7003;46.982;15.248;2022-07-25T06:30:53;97251.16;;;24.92;100.00
13867;BME280;7003;46.982;15.248;2022-07-25T06:33:21;97249.63;;;25.11;100.00
13867;BME280;7003;46.982;15.248;2022-07-25T06:35:51;97247.00;;;25.07;100.00
13867;BME280;7003;46.982;15.248;2022-07-25T06:38:19;97252.22;;;25.18;100.00
13867;BME280;7003;46.982;15.248;2022-07-25T06:40:47;97245.44;;;25.65;100.00
13867;BME280;7003;46.982;15.248;2022-07-25T06:43:18;97238.44;;;25.84;100.00
13867;BME280;7003;46.982;15.248;2022-07-25T06:45:45;97240.75;;;26.18;100.00
13867;BME280;7003;46.982;15.248;2022-07-25T06:48:15;97239.44;;;26.42;100.00
13867;BME280;7003;46.982;15.248;2022-07-25T06:50:43;97240.25;;;26.72;100.00
13867;BME280;7003;46.982;15.248;2022-07-25T06:53:16;97242.03;;;26.95;100.00
13867;BME280;7003;46.982;15.248;2022-07-25T06:55:46;97235.88;;;27.19;100.00
13867;BME280;7003;46.982;15.248;2022-07-25T06:58:18;97239.31;;;27.24;100.00
13867;BME280;7003;46.982;15.248;2022-07-25T07:00:46;97237.06;;;27.47;100.00
13867;BME280;7003;46.982;15.248;2022-07-25T07:03:17;97244.75;;;27.65;100.00
13867;BME280;7003;46.982;15.248;2022-07-25T07:05:47;97237.13;;;27.60;100.00
13867;BME280;7003;46.982;15.248;2022-07-25T07:08:17;97236.91;;;27.67;100.00
13867;BME280;7003;46.982;15.248;2022-07-25T07:10:45;97239.41;;;27.74;100.00
13867;BME280;7003;46.982;15.248;2022-07-25T07:13:13;97240.94;;;27.88;100.00
13867;BME280;7003;46.982;15.248;2022-07-25T07:15:45;97238.47;;;27.93;100.00
13867;BME280;7003;46.982;15.248;2022-07-25T07:18:17;97237.78;;;27.89;100.00
13867;BME280;7003;46.982;15.248;2022-07-25T07:20:48;97248.19;;;28.07;100.00
13867;BME280;7003;46.982;15.248;2022-07-25T07:23:19;97237.25;;;28.20;100.00
13867;BME280;7003;46.982;15.248;2022-07-25T07:25:49;97242.06;;;28.41;100.00
13867;BME280;7003;46.982;15.248;2022-07-25T07:28:20;97242.06;;;28.41;100.00
13867;BME280;7003;46.982;15.248;2022-07-25T07:30:48;97239.75;;;28.27;100.00
13867;BME280;7003;46.982;15.248;2022-07-25T07:33:17;97237.91;;;28.37;100.00
13867;BME280;7003;46.982;15.248;2022-07-25T07:35:47;97234.50;;;28.45;100.00
13867;BME280;7003;46.982;15.248;2022-07-25T07:38:15;97235.75;;;28.79;100.00
13867;BME280;7003;46.982;15.248;2022-07-25T07:40:44;97230.66;;;28.90;100.00
13867;BME280;7003;46.982;15.248;2022-07-25T07:43:11;97233.88;;;29.10;100.00
13867;BME280;7003;46.982;15.248;2022-07-25T07:45:39;97227.38;;;29.17;100.00
13867;BME280;7003;46.982;15.248;2022-07-25T07:48:10;97222.84;;;29.23;100.00
13867;BME280;7003;46.982;15.248;2022-07-25T07:50:42;97230.50;;;29.06;100.00
13867;BME280;7003;46.982;15.248;2022-07-25T07:53:13;97225.72;;;29.19;100.00
13867;BME280;7003;46.982;15.248;2022-07-25T07:55:40;97222.81;;;29.35;100.00
13867;BME280;7003;46.982;15.248;2022-07-25T07:58:17;97221.16;;;29.38;100.00
13867;BME280;7003;46.982;15.248;2022-07-25T08:00:48;97214.16;;;29.68;100.00
13867;BME280;7003;46.982;15.248;2022-07-25T08:03:17;97213.59;;;29.42;93.97
13867;BME280;7003;46.982;15.248;2022-07-25T08:05:47;97208.28;;;28.69;89.15
13867;BME280;7003;46.982;15.248;2022-07-25T08:08:16;97207.06;;;28.70;97.67
13867;BME280;7003;46.982;15.248;2022-07-25T08:10:46;97209.53;;;28.90;94.25
13867;BME280;7003;46.982;15.248;2022-07-25T08:13:19;97206.25;;;29.17;92.11
13867;BME280;7003;46.982;15.248;2022-07-25T08:15:48;97204.66;;;28.73;89.71
13867;BME280;7003;46.982;15.248;2022-07-25T08:18:16;97217.78;;;28.05;93.83
13867;BME280;7003;46.982;15.248;2022-07-25T08:20:44;97201.56;;;28.49;93.99
13867;BME280;7003;46.982;15.248;2022-07-25T08:23:14;97201.47;;;28.87;89.04
13867;BME280;7003;46.982;15.248;2022-07-25T08:25:42;97194.84;;;29.19;92.02
13867;BME280;7003;46.982;15.248;2022-07-25T08:28:11;97193.41;;;29.58;85.21
13867;BME280;7003;46.982;15.248;2022-07-25T08:30:41;97192.72;;;29.75;84.85
13867;BME280;7003;46.982;15.248;2022-07-25T08:33:15;97186.19;;;30.22;84.60
13867;BME280;7003;46.982;15.248;2022-07-25T08:35:45;97184.25;;;30.50;83.17
13867;BME280;7003;46.982;15.248;2022-07-25T08:38:18;97179.72;;;30.65;83.89
13867;BME280;7003;46.982;15.248;2022-07-25T08:40:46;97176.28;;;29.44;87.98
13867;BME280;7003;46.982;15.248;2022-07-25T08:43:15;97177.63;;;29.40;92.62
13867;BME280;7003;46.982;15.248;2022-07-25T08:45:44;97175.94;;;29.95;88.94
13867;BME280;7003;46.982;15.248;2022-07-25T08:48:16;97177.75;;;29.36;84.33
13867;BME280;7003;46.982;15.248;2022-07-25T08:50:48;97171.22;;;29.74;84.37
13867;BME280;7003;46.982;15.248;2022-07-25T08:53:20;97168.31;;;29.99;85.96
13867;BME280;7003;46.982;15.248;2022-07-25T08:55:48;97163.66;;;30.36;82.59
13867;BME280;7003;46.982;15.248;2022-07-25T08:58:19;97162.03;;;30.66;80.18
13867;BME280;7003;46.982;15.248;2022-07-25T09:00:49;97168.28;;;30.85;77.96
13867;BME280;7003;46.982;15.248;2022-07-25T09:03:18;97162.31;;;31.05;78.05
13867;BME280;7003;46.982;15.248;2022-07-25T09:05:46;97158.50;;;31.11;77.19
13867;BME280;7003;46.982;15.248;2022-07-25T09:08:15;97152.81;;;31.24;74.81
13867;BME280;7003;46.982;15.248;2022-07-25T09:10:47;97154.13;;;31.47;67.77
13867;BME280;7003;46.982;15.248;2022-07-25T09:13:18;97144.34;;;31.55;67.04
13867;BME280;7003;46.982;15.248;2022-07-25T09:15:48;97138.66;;;31.67;64.02
13867;BME280;7003;46.982;15.248;2022-07-25T09:18:22;97134.84;;;31.65;62.90
13867;BME280;7003;46.982;15.248;2022-07-25T09:20:52;97137.09;;;31.33;62.17
13867;BME280;7003;46.982;15.248;2022-07-25T09:23:31;97128.59;;;30.95;63.91
13867;BME280;7003;46.982;15.248;2022-07-25T09:26:06;97122.97;;;30.53;66.96
13867;BME280;7003;46.982;15.248;2022-07-25T09:28:39;97133.25;;;31.31;67.57
13867;BME280;7003;46.982;15.248;2022-07-25T09:31:07;97120.00;;;31.71;62.18
13867;BME280;7003;46.982;15.248;2022-07-25T09:33:45;97122.47;;;31.00;63.45
13867;BME280;7003;46.982;15.248;2022-07-25T09:36:14;97117.59;;;31.13;60.76
13867;BME280;7003;46.982;15.248;2022-07-25T09:38:51;97106.19;;;30.33;65.57
13867;BME280;7003;46.982;15.248;2022-07-25T09:41:21;97113.22;;;30.79;68.44
13867;BME280;7003;46.982;15.248;2022-07-25T09:43:49;97101.91;;;30.86;67.61
13867;BME280;7003;46.982;15.248;2022-07-25T09:46:28;97101.09;;;31.55;65.13
13867;BME280;7003;46.982;15.248;2022-07-25T09:48:59;97113.22;;;30.70;64.76
13867;BME280;7003;46.982;15.248;2022-07-25T09:51:27;97107.28;;;30.81;63.49
13867;BME280;7003;46.982;15.248;2022-07-25T09:53:58;97099.31;;;30.92;63.26
13867;BME280;7003;46.982;15.248;2022-07-25T09:56:30;97101.91;;;30.04;61.13
13867;BME280;7003;46.982;15.248;2022-07-25T09:59:04;97095.38;;;29.62;63.46
13867;BME280;7003;46.982;15.248;2022-07-25T10:01:38;97090.03;;;30.26;65.56
13867;BME280;7003;46.982;15.248;2022-07-25T10:04:13;97087.75;;;30.60;63.52
13867;BME280;7003;46.982;15.248;2022-07-25T10:06:52;97078.75;;;30.78;64.26
13867;BME280;7003;46.982;15.248;2022-07-25T10:09:27;97087.28;;;31.41;59.44
13867;BME280;7003;46.982;15.248;2022-07-25T10:12:07;97078.72;;;31.39;59.63
13867;BME280;7003;46.982;15.248;2022-07-25T10:14:38;97077.53;;;30.15;59.49
13867;BME280;7003;46.982;15.248;2022-07-25T10:17:19;97080.44;;;30.12;59.46
13867;BME280;7003;46.982;15.248;2022-07-25T10:19:47;97071.66;;;29.77;60.20
13867;BME280;7003;46.982;15.248;2022-07-25T10:22:18;97077.75;;;29.90;59.80
13867;BME280;7003;46.982;15.248;2022-07-25T10:24:47;97069.91;;;30.38;65.56
13867;BME280;7003;46.982;15.248;2022-07-25T10:27:23;97074.03;;;31.30;62.79
13867;BME280;7003;46.982;15.248;2022-07-25T10:29:53;97068.69;;;31.59;59.68
13867;BME280;7003;46.982;15.248;2022-07-25T10:32:25;97062.97;;;32.05;55.57
13867;BME280;7003;46.982;15.248;2022-07-25T10:35:14;97058.28;;;30.88;57.98
13867;BME280;7003;46.982;15.248;2022-07-25T10:37:49;97057.09;;;30.26;60.69
13867;BME280;7003;46.982;15.248;2022-07-25T10:40:25;97053.72;;;30.76;58.55
13867;BME280;7003;46.982;15.248;2022-07-25T10:43:00;97047.50;;;30.12;58.68
13867;BME280;7003;46.982;15.248;2022-07-25T10:45:36;97055.63;;;29.66;61.19
13867;BME280;7003;46.982;15.248;2022-07-25T10:48:10;97044.59;;;29.97;60.54
13867;BME280;7003;46.982;15.248;2022-07-25T10:50:52;97042.00;;;30.21;61.22
13867;BME280;7003;46.982;15.248;2022-07-25T10:53:27;97042.78;;;30.31;62.48
13867;BME280;7003;46.982;15.248;2022-07-25T10:56:02;97037.91;;;30.53;61.71
13867;BME280;7003;46.982;15.248;2022-07-25T10:58:48;97031.78;;;30.31;61.99
13867;BME280;7003;46.982;15.248;2022-07-25T11:01:22;97031.97;;;31.15;62.57
13867;BME280;7003;46.982;15.248;2022-07-25T11:03:52;97026.72;;;31.83;57.52
13867;BME280;7003;46.982;15.248;2022-07-25T11:06:31;97025.34;;;31.87;58.19
13867;BME280;7003;46.982;15.248;2022-07-25T11:09:00;97024.34;;;32.14;56.57
13867;BME280;7003;46.982;15.248;2022-07-25T11:11:33;97010.13;;;32.69;55.43
13867;BME280;7003;46.982;15.248;2022-07-25T11:14:03;97015.19;;;32.70;57.26
13867;BME280;7003;46.982;15.248;2022-07-25T11:16:33;97010.47;;;32.18;54.64
13867;BME280;7003;46.982;15.248;2022-07-25T11:19:03;97015.03;;;32.21;57.37
13867;BME280;7003;46.982;15.248;2022-07-25T11:21:43;97013.88;;;31.32;56.33
13867;BME280;7003;46.982;15.248;2022-07-25T11:24:12;97011.38;;;31.01;56.82
13867;BME280;7003;46.982;15.248;2022-07-25T11:26:50;97001.06;;;31.86;54.13
13867;BME280;7003;46.982;15.248;2022-07-25T11:29:20;97000.06;;;32.51;56.03
13867;BME280;7003;46.982;15.248;2022-07-25T11:31:53;96987.69;;;33.05;54.00
13867;BME280;7003;46.982;15.248;2022-07-25T11:34:23;96985.78;;;33.46;51.88
13867;BME280;7003;46.982;15.248;2022-07-25T11:36:55;96988.91;;;33.54;51.00
13867;BME280;7003;46.982;15.248;2022-07-25T11:39:27;96982.38;;;33.51;55.62
13867;BME280;7003;46.982;15.248;2022-07-25T11:42:00;96984.88;;;33.35;49.18
13867;BME280;7003;46.982;15.248;2022-07-25T11:44:35;96979.22;;;31.58;53.69
13867;BME280;7003;46.982;15.248;2022-07-25T11:47:04;96973.75;;;31.25;54.46
13867;BME280;7003;46.982;15.248;2022-07-25T11:49:43;96978.38;;;31.19;58.12
13867;BME280;7003;46.982;15.248;2022-07-25T11:52:19;96976.47;;;31.58;56.86
13867;BME280;7003;46.982;15.248;2022-07-25T11:54:51;96969.47;;;32.34;53.79
13867;BME280;7003;46.982;15.248;2022-07-25T11:57:23;96957.44;;;32.76;54.83
13867;BME280;7003;46.982;15.248;2022-07-25T11:59:54;96951.19;;;33.10;51.21
13867;BME280;7003;46.982;15.248;2022-07-25T12:02:23;96949.75;;;33.50;52.23
13867;BME280;7003;46.982;15.248;2022-07-25T12:04:55;96952.25;;;33.88;51.35
13867;BME280;7003;46.982;15.248;2022-07-25T12:07:39;96951.97;;;33.66;49.70
13867;BME280;7003;46.982;15.248;2022-07-25T12:10:09;96945.75;;;33.71;51.92
13867;BME280;7003;46.982;15.248;2022-07-25T12:12:50;96944.94;;;33.85;51.04
13867;BME280;7003;46.982;15.248;2022-07-25T12:15:22;96939.47;;;34.37;49.53
13867;BME280;7003;46.982;15.248;2022-07-25T12:17:54;96934.13;;;34.28;45.80
13867;BME280;7003;46.982;15.248;2022-07-25T12:20:23;96932.66;;;33.86;48.93
13867;BME280;7003;46.982;15.248;2022-07-25T12:22:55;96933.53;;;34.50;46.82
13867;BME280;7003;46.982;15.248;2022-07-25T12:25:23;96929.84;;;34.27;50.40
13867;BME280;7003;46.982;15.248;2022-07-25T12:27:54;96922.03;;;34.83;49.42
13867;BME280;7003;46.982;15.248;2022-07-25T12:30:25;96917.09;;;34.35;48.50
13867;BME280;7003;46.982;15.248;2022-07-25T12:32:53;96913.53;;;34.29;49.58
13867;BME280;7003;46.982;15.248;2022-07-25T12:35:22;96914.28;;;34.04;47.38
13867;BME280;7003;46.982;15.248;2022-07-25T12:37:50;96908.53;;;34.59;50.37
13867;BME280;7003;46.982;15.248;2022-07-25T12:40:18;96900.38;;;35.18;47.11
13867;BME280;7003;46.982;15.248;2022-07-25T12:42:46;96895.31;;;35.59;45.75
13867;BME280;7003;46.982;15.248;2022-07-25T12:45:13;96896.50;;;34.99;45.13
13867;BME280;7003;46.982;15.248;2022-07-25T12:47:47;96893.56;;;35.13;45.41
13867;BME280;7003;46.982;15.248;2022-07-25T12:50:15;96889.31;;;35.18;45.27
13867;BME280;7003;46.982;15.248;2022-07-25T12:52:46;96885.47;;;35.53;43.90
13867;BME280;7003;46.982;15.248;2022-07-25T12:55:15;96879.50;;;35.71;42.88
13867;BME280;7003;46.982;15.248;2022-07-25T12:57:46;96874.84;;;35.34;43.67
13867;BME280;7003;46.982;15.248;2022-07-25T13:00:15;96879.13;;;34.61;46.37
13867;BME280;7003;46.982;15.248;2022-07-25T13:02:51;96873.38;;;34.96;45.94
13867;BME280;7003;46.982;15.248;2022-07-25T13:05:22;96873.00;;;34.78;45.90
13867;BME280;7003;46.982;15.248;2022-07-25T13:07:50;96860.19;;;34.17;42.81
13867;BME280;7003;46.982;15.248;2022-07-25T13:10:18;96865.38;;;34.04;46.98
13867;BME280;7003;46.982;15.248;2022-07-25T13:12:49;96858.56;;;34.62;44.29
13867;BME280;7003;46.982;15.248;2022-07-25T13:15:19;96840.28;;;34.70;42.96